sensor_id;sensor_type;location;lat;lon;timestamp;P1;durP1;ratioP1;P2;durP2;ratioP2
25980;SDS011;13772;52.996;9.124;2022-08-19T06:02:58;6.65;;;2.75;;
25980;SDS011;13772;52.996;9.124;2022-08-19T06:05:27;5.22;;;2.83;;
25980;SDS011;13772;52.996;9.124;2022-08-19T06:07:53;6.22;;;3.47;;
25980;SDS011;13772;52.996;9.124;2022-08-19T06:10:19;8.32;;;4.35;;
25980;SDS011;13772;52.996;9.124;2022-08-19T06:12:45;9.20;;;4.40;;
25980;SDS011;13772;52.996;9.124;2022-08-19T06:15:12;8.23;;;4.10;;
25980;SDS011;13772;52.996;9.124;2022-08-19T06:17:38;7.97;;;4.70;;
25980;SDS011;13772;52.996;9.124;2022-08-19T06:20:04;8.50;;;5.38;;
25980;SDS011;13772;52.996;9.124;2022-08-19T06:22:30;9.30;;;5.63;;
25980;SDS011;13772;52.996;9.124;2022-08-19T06:24:55;10.45;;;5.78;;
25980;SDS011;13772;52.996;9.124;2022-08-19T06:27:21;6.93;;;5.40;;
25980;SDS011;13772;52.996;9.124;2022-08-19T06:29:46;8.50;;;5.22;;
25980;SDS011;13772;52.996;9.124;2022-08-19T06:32:11;7.88;;;4.97;;
25980;SDS011;13772;52.996;9.124;2022-08-19T06:34:37;6.90;;;4.00;;
25980;SDS011;13772;52.996;9.124;2022-08-19T06:37:03;7.82;;;4.95;;
25980;SDS011;13772;52.996;9.124;2022-08-19T06:39:29;10.43;;;4.82;;
25980;SDS011;13772;52.996;9.124;2022-08-19T06:41:57;9.02;;;4.80;;
25980;SDS011;13772;52.996;9.124;2022-08-19T06:44:23;6.72;;;4.63;;
25980;SDS011;13772;52.996;9.124;2022-08-19T06:46:50;9.15;;;4.50;;
25980;SDS011;13772;52.996;9.124;2022-08-19T06:49:16;7.18;;;5.00;;
25980;SDS011;13772;52.996;9.124;2022-08-19T06:51:42;7.72;;;4.47;;
25980;SDS011;13772;52.996;9.124;2022-08-19T06:54:08;7.93;;;5.28;;
25980;SDS011;13772;52.996;9.124;2022-08-19T06:56:34;7.15;;;5.60;;
25980;SDS011;13772;52.996;9.124;2022-08-19T06:59:04;8.88;;;5.78;;
25980;SDS011;13772;52.996;9.124;2022-08-19T07:01:30;7.13;;;5.13;;
25980;SDS011;13772;52.996;9.124;2022-08-19T07:03:55;8.45;;;6.05;;
25980;SDS011;13772;52.996;9.124;2022-08-19T07:06:21;7.63;;;6.10;;
25980;SDS011;13772;52.996;9.124;2022-08-19T07:08:47;7.40;;;5.60;;
25980;SDS011;13772;52.996;9.124;2022-08-19T07:11:14;9.48;;;6.05;;
25980;SDS011;13772;52.996;9.124;2022-08-19T07:13:40;7.60;;;5.53;;
25980;SDS011;13772;52.996;9.124;2022-08-19T07:16:09;9.13;;;5.32;;
25980;SDS011;13772;52.996;9.124;2022-08-19T07:18:34;7.20;;;5.47;;
25980;SDS011;13772;52.996;9.124;2022-08-19T07:21:03;7.72;;;6.25;;
25980;SDS011;13772;52.996;9.124;2022-08-19T07:23:29;10.07;;;5.20;;
25980;SDS011;13772;52.996;9.124;2022-08-19T07:25:54;7.10;;;5.18;;
25980;SDS011;13772;52.996;9.124;2022-08-19T07:28:20;8.73;;;6.22;;
25980;SDS011;13772;52.996;9.124;2022-08-19T07:30:45;8.90;;;6.70;;
25980;SDS011;13772;52.996;9.124;2022-08-19T07:33:10;11.40;;;5.43;;
25980;SDS011;13772;52.996;9.124;2022-08-19T07:35:36;9.10;;;4.65;;
25980;SDS011;13772;52.996;9.124;2022-08-19T07:38:01;6.75;;;4.15;;
25980;SDS011;13772;52.996;9.124;2022-08-19T07:40:28;7.95;;;4.80;;
25980;SDS011;13772;52.996;9.124;2022-08-19T07:42:53;5.68;;;4.60;;
25980;SDS011;13772;52.996;9.124;2022-08-19T07:45:18;7.68;;;4.40;;
25980;SDS011;13772;52.996;9.124;2022-08-19T07:47:43;6.65;;;4.25;;
25980;SDS011;13772;52.996;9.124;2022-08-19T07:50:10;10.02;;;4.63;;
25980;SDS011;13772;52.996;9.124;2022-08-19T07:52:36;8.70;;;4.72;;
25980;SDS011;13772;52.996;9.124;2022-08-19T07:55:05;8.10;;;4.70;;
25980;SDS011;13772;52.996;9.124;2022-08-19T07:57:30;6.35;;;4.68;;
25980;SDS011;13772;52.996;9.124;2022-08-19T07:59:56;6.93;;;4.43;;
25980;SDS011;13772;52.996;9.124;2022-08-19T08:02:21;8.85;;;5.00;;
25980;SDS011;13772;52.996;9.124;2022-08-19T08:04:46;6.85;;;3.97;;
25980;SDS011;13772;52.996;9.124;2022-08-19T08:07:30;5.75;;;3.75;;
25980;SDS011;13772;52.996;9.124;2022-08-19T08:10:13;6.03;;;4.30;;
25980;SDS011;13772;52.996;9.124;2022-08-19T08:12:39;7.80;;;4.60;;
25980;SDS011;13772;52.996;9.124;2022-08-19T08:15:13;6.32;;;3.47;;
25980;SDS011;13772;52.996;9.124;2022-08-19T08:17:41;6.43;;;4.78;;
25980;SDS011;13772;52.996;9.124;2022-08-19T08:20:07;5.38;;;3.50;;
25980;SDS011;13772;52.996;9.124;2022-08-19T08:22:32;6.22;;;3.45;;
25980;SDS011;13772;52.996;9.124;2022-08-19T08:25:19;7.72;;;3.40;;
25980;SDS011;13772;52.996;9.124;2022-08-19T08:27:45;7.45;;;3.55;;
25980;SDS011;13772;52.996;9.124;2022-08-19T08:30:15;4.40;;;2.85;;
25980;SDS011;13772;52.996;9.124;2022-08-19T08:32:41;6.05;;;3.10;;
25980;SDS011;13772;52.996;9.124;2022-08-19T08:35:07;5.18;;;2.70;;
25980;SDS011;13772;52.996;9.124;2022-08-19T08:37:33;7.88;;;3.00;;
25980;SDS011;13772;52.996;9.124;2022-08-19T08:39:58;3.35;;;2.97;;
25980;SDS011;13772;52.996;9.124;2022-08-19T08:42:34;4.95;;;3.28;;
25980;SDS011;13772;52.996;9.124;2022-08-19T08:45:11;5.93;;;3.40;;
25980;SDS011;13772;52.996;9.124;2022-08-19T08:47:39;4.05;;;2.70;;
25980;SDS011;13772;52.996;9.124;2022-08-19T08:50:07;4.75;;;3.08;;
25980;SDS011;13772;52.996;9.124;2022-08-19T08:52:36;4.90;;;3.10;;
25980;SDS011;13772;52.996;9.124;2022-08-19T08:55:07;5.88;;;3.13;;
25980;SDS011;13772;52.996;9.124;2022-08-19T08:57:35;5.03;;;3.17;;
25980;SDS011;13772;52.996;9.124;2022-08-19T09:00:04;6.43;;;4.43;;
25980;SDS011;13772;52.996;9.124;2022-08-19T09:02:30;6.47;;;4.25;;
25980;SDS011;13772;52.996;9.124;2022-08-19T09:04:56;7.63;;;4.20;;
25980;SDS011;13772;52.996;9.124;2022-08-19T09:07:35;6.82;;;3.92;;
25980;SDS011;13772;52.996;9.124;2022-08-19T09:10:51;8.30;;;4.22;;
25980;SDS011;13772;52.996;9.124;2022-08-19T09:15:25;6.57;;;4.07;;
25980;SDS011;13772;52.996;9.124;2022-08-19T09:17:52;5.70;;;3.13;;
25980;SDS011;13772;52.996;9.124;2022-08-19T09:20:19;5.70;;;2.80;;
25980;SDS011;13772;52.996;9.124;2022-08-19T09:22:44;4.00;;;2.97;;
25980;SDS011;13772;52.996;9.124;2022-08-19T09:25:11;5.70;;;3.70;;
25980;SDS011;13772;52.996;9.124;2022-08-19T09:27:37;4.80;;;2.85;;
25980;SDS011;13772;52.996;9.124;2022-08-19T09:30:03;5.63;;;3.20;;
25980;SDS011;13772;52.996;9.124;2022-08-19T09:32:29;7.53;;;3.80;;
25980;SDS011;13772;52.996;9.124;2022-08-19T09:34:55;5.32;;;3.15;;
25980;SDS011;13772;52.996;9.124;2022-08-19T09:37:23;5.63;;;3.90;;
25980;SDS011;13772;52.996;9.124;2022-08-19T09:39:49;3.95;;;2.97;;
25980;SDS011;13772;52.996;9.124;2022-08-19T09:42:14;7.07;;;3.58;;
25980;SDS011;13772;52.996;9.124;2022-08-19T09:44:40;5.55;;;3.92;;
25980;SDS011;13772;52.996;9.124;2022-08-19T09:47:05;6.18;;;4.47;;
25980;SDS011;13772;52.996;9.124;2022-08-19T09:49:31;7.72;;;4.00;;
25980;SDS011;13772;52.996;9.124;2022-08-19T09:51:57;5.72;;;4.03;;
25980;SDS011;13772;52.996;9.124;2022-08-19T09:54:23;7.63;;;3.85;;
25980;SDS011;13772;52.996;9.124;2022-08-19T09:56:48;5.95;;;4.20;;
25980;SDS011;13772;52.996;9.124;2022-08-19T09:59:13;6.03;;;3.95;;
25980;SDS011;13772;52.996;9.124;2022-08-19T10:01:39;6.05;;;4.47;;
25980;SDS011;13772;52.996;9.124;2022-08-19T10:04:04;7.72;;;5.18;;
25980;SDS011;13772;52.996;9.124;2022-08-19T10:06:33;6.85;;;4.85;;
25980;SDS011;13772;52.996;9.124;2022-08-19T10:08:59;8.45;;;4.22;;
25980;SDS011;13772;52.996;9.124;2022-08-19T10:11:24;5.82;;;4.30;;
25980;SDS011;13772;52.996;9.124;2022-08-19T10:13:51;7.32;;;4.00;;
25980;SDS011;13772;52.996;9.124;2022-08-19T10:16:18;5.35;;;3.47;;
25980;SDS011;13772;52.996;9.124;2022-08-19T10:18:44;4.13;;;3.63;;
25980;SDS011;13772;52.996;9.124;2022-08-19T10:21:14;5.55;;;3.95;;
25980;SDS011;13772;52.996;9.124;2022-08-19T10:23:41;6.63;;;3.55;;
25980;SDS011;13772;52.996;9.124;2022-08-19T10:26:13;6.57;;;3.03;;
25980;SDS011;13772;52.996;9.124;2022-08-19T10:28:38;7.75;;;2.85;;
25980;SDS011;13772;52.996;9.124;2022-08-19T10:31:07;8.75;;;2.80;;
25980;SDS011;13772;52.996;9.124;2022-08-19T10:33:33;5.35;;;3.13;;
25980;SDS011;13772;52.996;9.124;2022-08-19T10:36:00;6.72;;;4.10;;
25980;SDS011;13772;52.996;9.124;2022-08-19T10:38:25;4.78;;;3.97;;
25980;SDS011;13772;52.996;9.124;2022-08-19T10:40:50;7.68;;;4.93;;
25980;SDS011;13772;52.996;9.124;2022-08-19T10:43:15;5.75;;;5.00;;
25980;SDS011;13772;52.996;9.124;2022-08-19T10:45:41;7.15;;;4.93;;
25980;SDS011;13772;52.996;9.124;2022-08-19T10:48:07;4.25;;;3.45;;
25980;SDS011;13772;52.996;9.124;2022-08-19T10:50:32;6.95;;;3.00;;
25980;SDS011;13772;52.996;9.124;2022-08-19T10:53:16;5.40;;;3.85;;
25980;SDS011;13772;52.996;9.124;2022-08-19T10:55:41;5.78;;;3.78;;
25980;SDS011;13772;52.996;9.124;2022-08-19T10:58:25;5.00;;;3.35;;
25980;SDS011;13772;52.996;9.124;2022-08-19T11:00:52;4.70;;;3.38;;
25980;SDS011;13772;52.996;9.124;2022-08-19T11:03:18;6.07;;;3.45;;
25980;SDS011;13772;52.996;9.124;2022-08-19T11:05:43;6.65;;;3.80;;
25980;SDS011;13772;52.996;9.124;2022-08-19T11:08:08;7.23;;;3.03;;
25980;SDS011;13772;52.996;9.124;2022-08-19T11:10:37;6.60;;;3.00;;
25980;SDS011;13772;52.996;9.124;2022-08-19T11:13:02;6.25;;;3.33;;
25980;SDS011;13772;52.996;9.124;2022-08-19T11:15:28;5.82;;;3.28;;
25980;SDS011;13772;52.996;9.124;2022-08-19T11:17:53;5.70;;;3.13;;
25980;SDS011;13772;52.996;9.124;2022-08-19T11:20:19;4.10;;;2.80;;
25980;SDS011;13772;52.996;9.124;2022-08-19T11:22:44;4.90;;;3.08;;
25980;SDS011;13772;52.996;9.124;2022-08-19T11:25:09;4.27;;;2.97;;
25980;SDS011;13772;52.996;9.124;2022-08-19T11:27:39;3.10;;;2.17;;
25980;SDS011;13772;52.996;9.124;2022-08-19T11:30:07;2.78;;;1.58;;
25980;SDS011;13772;52.996;9.124;2022-08-19T11:32:32;3.53;;;1.58;;
25980;SDS011;13772;52.996;9.124;2022-08-19T11:34:58;3.92;;;2.20;;
25980;SDS011;13772;52.996;9.124;2022-08-19T11:37:23;4.23;;;2.10;;
25980;SDS011;13772;52.996;9.124;2022-08-19T11:39:49;5.80;;;2.17;;
25980;SDS011;13772;52.996;9.124;2022-08-19T11:42:14;4.03;;;1.40;;
25980;SDS011;13772;52.996;9.124;2022-08-19T11:44:58;6.47;;;1.77;;
25980;SDS011;13772;52.996;9.124;2022-08-19T11:47:23;3.72;;;1.75;;
25980;SDS011;13772;52.996;9.124;2022-08-19T11:49:49;3.30;;;1.60;;
25980;SDS011;13772;52.996;9.124;2022-08-19T11:52:14;5.93;;;1.90;;
25980;SDS011;13772;52.996;9.124;2022-08-19T11:54:40;3.20;;;1.58;;
25980;SDS011;13772;52.996;9.124;2022-08-19T11:57:05;3.13;;;1.52;;
25980;SDS011;13772;52.996;9.124;2022-08-19T11:59:30;2.53;;;0.90;;
25980;SDS011;13772;52.996;9.124;2022-08-19T12:01:55;4.22;;;1.77;;
25980;SDS011;13772;52.996;9.124;2022-08-19T12:04:22;4.47;;;1.40;;
25980;SDS011;13772;52.996;9.124;2022-08-19T12:06:47;3.63;;;1.55;;
25980;SDS011;13772;52.996;9.124;2022-08-19T12:09:12;3.40;;;1.50;;
25980;SDS011;13772;52.996;9.124;2022-08-19T12:11:39;5.80;;;1.70;;
25980;SDS011;13772;52.996;9.124;2022-08-19T12:14:05;5.82;;;1.65;;
25980;SDS011;13772;52.996;9.124;2022-08-19T12:16:31;2.90;;;1.42;;
25980;SDS011;13772;52.996;9.124;2022-08-19T12:18:57;1.63;;;0.90;;
25980;SDS011;13772;52.996;9.124;2022-08-19T12:21:28;3.28;;;1.10;;
25980;SDS011;13772;52.996;9.124;2022-08-19T12:23:54;2.33;;;0.80;;
25980;SDS011;13772;52.996;9.124;2022-08-19T12:26:19;2.13;;;0.90;;
25980;SDS011;13772;52.996;9.124;2022-08-19T12:28:45;3.38;;;1.00;;
25980;SDS011;13772;52.996;9.124;2022-08-19T12:31:10;1.92;;;0.95;;
25980;SDS011;13772;52.996;9.124;2022-08-19T12:33:39;2.75;;;0.80;;
25980;SDS011;13772;52.996;9.124;2022-08-19T12:36:06;1.25;;;0.80;;
25980;SDS011;13772;52.996;9.124;2022-08-19T12:38:32;2.38;;;0.85;;
25980;SDS011;13772;52.996;9.124;2022-08-19T12:40:57;1.58;;;0.88;;
25980;SDS011;13772;52.996;9.124;2022-08-19T12:43:23;1.60;;;0.90;;
25980;SDS011;13772;52.996;9.124;2022-08-19T12:45:49;3.50;;;1.10;;
25980;SDS011;13772;52.996;9.124;2022-08-19T12:48:14;2.15;;;0.65;;
25980;SDS011;13772;52.996;9.124;2022-08-19T12:50:40;3.95;;;0.85;;
25980;SDS011;13772;52.996;9.124;2022-08-19T12:53:05;2.28;;;0.90;;
25980;SDS011;13772;52.996;9.124;2022-08-19T12:55:31;1.63;;;0.90;;
25980;SDS011;13772;52.996;9.124;2022-08-19T12:57:56;3.80;;;1.10;;
25980;SDS011;13772;52.996;9.124;2022-08-19T13:00:22;2.47;;;0.90;;
25980;SDS011;13772;52.996;9.124;2022-08-19T13:02:48;2.60;;;0.88;;
25980;SDS011;13772;52.996;9.124;2022-08-19T13:05:19;2.63;;;1.17;;
25980;SDS011;13772;52.996;9.124;2022-08-19T13:07:47;3.47;;;0.70;;
25980;SDS011;13772;52.996;9.124;2022-08-19T13:10:13;4.75;;;0.60;;
25980;SDS011;13772;52.996;9.124;2022-08-19T13:12:40;1.30;;;0.60;;
25980;SDS011;13772;52.996;9.124;2022-08-19T13:15:06;2.05;;;0.80;;
25980;SDS011;13772;52.996;9.124;2022-08-19T13:17:33;1.15;;;0.60;;
25980;SDS011;13772;52.996;9.124;2022-08-19T13:19:58;4.53;;;0.85;;
25980;SDS011;13772;52.996;9.124;2022-08-19T13:22:23;3.45;;;1.10;;
25980;SDS011;13772;52.996;9.124;2022-08-19T13:24:49;2.47;;;0.80;;
25980;SDS011;13772;52.996;9.124;2022-08-19T13:27:15;3.40;;;0.73;;
25980;SDS011;13772;52.996;9.124;2022-08-19T13:29:40;4.40;;;0.93;;
25980;SDS011;13772;52.996;9.124;2022-08-19T13:32:25;1.58;;;1.10;;
25980;SDS011;13772;52.996;9.124;2022-08-19T13:35:08;2.45;;;0.93;;
25980;SDS011;13772;52.996;9.124;2022-08-19T13:37:34;2.10;;;0.80;;
25980;SDS011;13772;52.996;9.124;2022-08-19T13:40:15;3.13;;;0.77;;
25980;SDS011;13772;52.996;9.124;2022-08-19T13:42:43;5.07;;;0.90;;
25980;SDS011;13772;52.996;9.124;2022-08-19T13:45:08;4.70;;;0.75;;
25980;SDS011;13772;52.996;9.124;2022-08-19T13:47:34;5.68;;;0.82;;
25980;SDS011;13772;52.996;9.124;2022-08-19T13:50:03;8.90;;;1.33;;
25980;SDS011;13772;52.996;9.124;2022-08-19T13:52:28;1.70;;;0.95;;
25980;SDS011;13772;52.996;9.124;2022-08-19T13:54:54;2.72;;;0.85;;
25980;SDS011;13772;52.996;9.124;2022-08-19T13:57:19;1.52;;;0.77;;
25980;SDS011;13772;52.996;9.124;2022-08-19T13:59:44;2.75;;;1.00;;
25980;SDS011;13772;52.996;9.124;2022-08-19T14:02:09;1.48;;;0.77;;
25980;SDS011;13772;52.996;9.124;2022-08-19T14:04:35;3.53;;;0.90;;
25980;SDS011;13772;52.996;9.124;2022-08-19T14:07:02;2.30;;;0.70;;
25980;SDS011;13772;52.996;9.124;2022-08-19T14:09:28;2.47;;;0.93;;
25980;SDS011;13772;52.996;9.124;2022-08-19T14:11:53;3.47;;;0.90;;
25980;SDS011;13772;52.996;9.124;2022-08-19T14:14:18;2.50;;;0.80;;
25980;SDS011;13772;52.996;9.124;2022-08-19T14:16:43;3.20;;;0.70;;
25980;SDS011;13772;52.996;9.124;2022-08-19T14:19:09;2.27;;;0.70;;
25980;SDS011;13772;52.996;9.124;2022-08-19T14:21:34;2.53;;;0.80;;
25980;SDS011;13772;52.996;9.124;2022-08-19T14:24:00;2.70;;;0.77;;
25980;SDS011;13772;52.996;9.124;2022-08-19T14:26:26;2.58;;;1.00;;
25980;SDS011;13772;52.996;9.124;2022-08-19T14:28:51;24.07;;;2.37;;
25980;SDS011;13772;52.996;9.124;2022-08-19T14:31:17;3.00;;;0.77;;
25980;SDS011;13772;52.996;9.124;2022-08-19T14:33:44;5.03;;;1.30;;
25980;SDS011;13772;52.996;9.124;2022-08-19T14:36:10;3.13;;;0.75;;
25980;SDS011;13772;52.996;9.124;2022-08-19T14:38:35;3.70;;;0.73;;
25980;SDS011;13772;52.996;9.124;2022-08-19T14:41:12;4.07;;;0.85;;
25980;SDS011;13772;52.996;9.124;2022-08-19T14:43:38;3.83;;;1.02;;
25980;SDS011;13772;52.996;9.124;2022-08-19T14:46:03;1.70;;;0.80;;
25980;SDS011;13772;52.996;9.124;2022-08-19T14:48:28;1.20;;;0.60;;
25980;SDS011;13772;52.996;9.124;2022-08-19T14:50:53;4.37;;;0.70;;
25980;SDS011;13772;52.996;9.124;2022-08-19T14:53:19;8.70;;;0.80;;
25980;SDS011;13772;52.996;9.124;2022-08-19T14:55:45;0.57;;;0.33;;
25980;SDS011;13772;52.996;9.124;2022-08-19T14:58:10;0.75;;;0.40;;
25980;SDS011;13772;52.996;9.124;2022-08-19T15:00:36;0.47;;;0.35;;
25980;SDS011;13772;52.996;9.124;2022-08-19T15:03:01;1.23;;;0.60;;
25980;SDS011;13772;52.996;9.124;2022-08-19T15:05:26;0.67;;;0.30;;
25980;SDS011;13772;52.996;9.124;2022-08-19T15:07:52;0.60;;;0.40;;
25980;SDS011;13772;52.996;9.124;2022-08-19T15:10:19;1.35;;;0.45;;
25980;SDS011;13772;52.996;9.124;2022-08-19T15:12:45;1.40;;;0.35;;
25980;SDS011;13772;52.996;9.124;2022-08-19T15:15:12;2.63;;;0.40;;
25980;SDS011;13772;52.996;9.124;2022-08-19T15:17:38;2.13;;;0.52;;
25980;SDS011;13772;52.996;9.124;2022-08-19T15:20:05;0.63;;;0.40;;
25980;SDS011;13772;52.996;9.124;2022-08-19T15:22:30;2.60;;;0.50;;
25980;SDS011;13772;52.996;9.124;2022-08-19T15:24:56;3.17;;;0.60;;
25980;SDS011;13772;52.996;9.124;2022-08-19T15:27:22;2.80;;;0.50;;
25980;SDS011;13772;52.996;9.124;2022-08-19T15:29:47;2.88;;;0.50;;
25980;SDS011;13772;52.996;9.124;2022-08-19T15:32:12;1.87;;;0.60;;
25980;SDS011;13772;52.996;9.124;2022-08-19T15:34:37;2.05;;;0.73;;
25980;SDS011;13772;52.996;9.124;2022-08-19T15:37:03;2.25;;;0.50;;
25980;SDS011;13772;52.996;9.124;2022-08-19T15:39:30;1.45;;;0.60;;
25980;SDS011;13772;52.996;9.124;2022-08-19T15:41:55;0.38;;;0.28;;
25980;SDS011;13772;52.996;9.124;2022-08-19T15:44:20;0.98;;;0.40;;
25980;SDS011;13772;52.996;9.124;2022-08-19T15:46:46;1.55;;;0.38;;
25980;SDS011;13772;52.996;9.124;2022-08-19T15:49:13;1.35;;;0.50;;
25980;SDS011;13772;52.996;9.124;2022-08-19T15:51:39;3.38;;;0.93;;
25980;SDS011;13772;52.996;9.124;2022-08-19T15:54:06;2.25;;;0.63;;
25980;SDS011;13772;52.996;9.124;2022-08-19T15:56:32;2.40;;;0.60;;
25980;SDS011;13772;52.996;9.124;2022-08-19T15:59:16;1.92;;;0.45;;
25980;SDS011;13772;52.996;9.124;2022-08-19T16:02:00;3.15;;;0.82;;
25980;SDS011;13772;52.996;9.124;2022-08-19T16:04:44;1.88;;;0.60;;
25980;SDS011;13772;52.996;9.124;2022-08-19T16:07:28;2.45;;;0.60;;
25980;SDS011;13772;52.996;9.124;2022-08-19T16:09:53;1.27;;;0.50;;
25980;SDS011;13772;52.996;9.124;2022-08-19T16:12:18;1.90;;;0.80;;
25980;SDS011;13772;52.996;9.124;2022-08-19T16:14:43;4.50;;;0.70;;
25980;SDS011;13772;52.996;9.124;2022-08-19T16:17:08;1.50;;;0.70;;
25980;SDS011;13772;52.996;9.124;2022-08-19T16:19:36;1.23;;;0.88;;
25980;SDS011;13772;52.996;9.124;2022-08-19T16:22:03;3.38;;;0.75;;
25980;SDS011;13772;52.996;9.124;2022-08-19T16:24:29;1.73;;;0.90;;
25980;SDS011;13772;52.996;9.124;2022-08-19T16:26:55;2.50;;;1.00;;
25980;SDS011;13772;52.996;9.124;2022-08-19T16:29:21;2.53;;;0.85;;
25980;SDS011;13772;52.996;9.124;2022-08-19T16:31:49;3.80;;;0.60;;
25980;SDS011;13772;52.996;9.124;2022-08-19T16:34:14;2.55;;;1.00;;
25980;SDS011;13772;52.996;9.124;2022-08-19T16:36:39;2.22;;;1.00;;
25980;SDS011;13772;52.996;9.124;2022-08-19T16:39:06;3.17;;;1.05;;
25980;SDS011;13772;52.996;9.124;2022-08-19T16:41:32;1.52;;;0.80;;
25980;SDS011;13772;52.996;9.124;2022-08-19T16:43:58;1.65;;;0.93;;
25980;SDS011;13772;52.996;9.124;2022-08-19T16:46:24;1.38;;;0.82;;
25980;SDS011;13772;52.996;9.124;2022-08-19T16:48:49;2.28;;;0.82;;
25980;SDS011;13772;52.996;9.124;2022-08-19T16:51:14;1.25;;;0.80;;
25980;SDS011;13772;52.996;9.124;2022-08-19T16:53:40;1.83;;;0.88;;
25980;SDS011;13772;52.996;9.124;2022-08-19T16:56:06;1.45;;;0.70;;
25980;SDS011;13772;52.996;9.124;2022-08-19T16:58:32;1.75;;;0.82;;
25980;SDS011;13772;52.996;9.124;2022-08-19T17:00:58;2.00;;;1.00;;
25980;SDS011;13772;52.996;9.124;2022-08-19T17:03:24;1.10;;;0.80;;
25980;SDS011;13772;52.996;9.124;2022-08-19T17:05:50;1.10;;;0.80;;
25980;SDS011;13772;52.996;9.124;2022-08-19T17:08:16;2.20;;;1.05;;
25980;SDS011;13772;52.996;9.124;2022-08-19T17:10:42;2.33;;;0.90;;
25980;SDS011;13772;52.996;9.124;2022-08-19T17:13:09;3.05;;;1.20;;
25980;SDS011;13772;52.996;9.124;2022-08-19T17:15:34;2.00;;;0.80;;
25980;SDS011;13772;52.996;9.124;2022-08-19T17:18:03;1.38;;;0.88;;
25980;SDS011;13772;52.996;9.124;2022-08-19T17:20:29;1.40;;;0.80;;
25980;SDS011;13772;52.996;9.124;2022-08-19T17:22:55;3.25;;;1.00;;
25980;SDS011;13772;52.996;9.124;2022-08-19T17:25:21;1.42;;;0.82;;
25980;SDS011;13772;52.996;9.124;2022-08-19T17:27:47;2.28;;;0.90;;
25980;SDS011;13772;52.996;9.124;2022-08-19T17:30:12;2.05;;;1.00;;
25980;SDS011;13772;52.996;9.124;2022-08-19T17:32:37;1.70;;;0.90;;
25980;SDS011;13772;52.996;9.124;2022-08-19T17:35:03;2.33;;;0.90;;
25980;SDS011;13772;52.996;9.124;2022-08-19T17:37:28;3.17;;;1.02;;
25980;SDS011;13772;52.996;9.124;2022-08-19T17:39:53;1.38;;;0.70;;
25980;SDS011;13772;52.996;9.124;2022-08-19T17:42:19;1.73;;;0.82;;
25980;SDS011;13772;52.996;9.124;2022-08-19T17:44:44;2.38;;;0.75;;
25980;SDS011;13772;52.996;9.124;2022-08-19T17:47:09;4.45;;;0.88;;
25980;SDS011;13772;52.996;9.124;2022-08-19T17:49:36;3.83;;;1.05;;
25980;SDS011;13772;52.996;9.124;2022-08-19T17:52:02;2.83;;;0.80;;
25980;SDS011;13772;52.996;9.124;2022-08-19T17:54:27;3.05;;;0.90;;
25980;SDS011;13772;52.996;9.124;2022-08-19T17:56:52;1.20;;;0.87;;
25980;SDS011;13772;52.996;9.124;2022-08-19T17:59:17;1.50;;;0.88;;
25980;SDS011;13772;52.996;9.124;2022-08-19T18:01:43;2.75;;;0.80;;
25980;SDS011;13772;52.996;9.124;2022-08-19T18:04:09;2.47;;;0.82;;
25980;SDS011;13772;52.996;9.124;2022-08-19T18:06:34;1.77;;;1.10;;
25980;SDS011;13772;52.996;9.124;2022-08-19T18:09:01;2.00;;;0.88;;
25980;SDS011;13772;52.996;9.124;2022-08-19T18:11:26;1.63;;;1.00;;
25980;SDS011;13772;52.996;9.124;2022-08-19T18:13:51;3.33;;;1.08;;
25980;SDS011;13772;52.996;9.124;2022-08-19T18:16:17;3.58;;;0.93;;
25980;SDS011;13772;52.996;9.124;2022-08-19T18:18:44;3.60;;;1.08;;
25980;SDS011;13772;52.996;9.124;2022-08-19T18:21:09;2.53;;;0.87;;
25980;SDS011;13772;52.996;9.124;2022-08-19T18:23:35;1.67;;;1.00;;
25980;SDS011;13772;52.996;9.124;2022-08-19T18:26:01;1.83;;;1.00;;
25980;SDS011;13772;52.996;9.124;2022-08-19T18:28:26;1.45;;;0.98;;
25980;SDS011;13772;52.996;9.124;2022-08-19T18:30:51;2.35;;;1.15;;
25980;SDS011;13772;52.996;9.124;2022-08-19T18:33:16;2.55;;;0.93;;
25980;SDS011;13772;52.996;9.124;2022-08-19T18:35:43;2.53;;;1.00;;
25980;SDS011;13772;52.996;9.124;2022-08-19T18:38:13;2.88;;;0.95;;
25980;SDS011;13772;52.996;9.124;2022-08-19T18:40:57;3.42;;;0.95;;
25980;SDS011;13772;52.996;9.124;2022-08-19T18:43:41;5.70;;;0.93;;
25980;SDS011;13772;52.996;9.124;2022-08-19T18:46:25;2.20;;;0.70;;
25980;SDS011;13772;52.996;9.124;2022-08-19T18:49:11;1.42;;;0.95;;
25980;SDS011;13772;52.996;9.124;2022-08-19T18:51:36;1.80;;;0.90;;
25980;SDS011;13772;52.996;9.124;2022-08-19T18:54:02;2.90;;;1.00;;
25980;SDS011;13772;52.996;9.124;2022-08-19T18:56:28;2.28;;;0.90;;
25980;SDS011;13772;52.996;9.124;2022-08-19T18:58:56;1.80;;;0.70;;
25980;SDS011;13772;52.996;9.124;2022-08-19T19:01:26;3.50;;;1.23;;
25980;SDS011;13772;52.996;9.124;2022-08-19T19:03:53;3.60;;;0.88;;
25980;SDS011;13772;52.996;9.124;2022-08-19T19:06:20;3.03;;;1.20;;
25980;SDS011;13772;52.996;9.124;2022-08-19T19:08:46;2.55;;;0.80;;
25980;SDS011;13772;52.996;9.124;2022-08-19T19:11:12;2.30;;;0.95;;
25980;SDS011;13772;52.996;9.124;2022-08-19T19:13:38;2.30;;;1.00;;
25980;SDS011;13772;52.996;9.124;2022-08-19T19:16:05;2.38;;;1.08;;
25980;SDS011;13772;52.996;9.124;2022-08-19T19:18:30;5.40;;;1.00;;
25980;SDS011;13772;52.996;9.124;2022-08-19T19:20:57;3.17;;;1.10;;
25980;SDS011;13772;52.996;9.124;2022-08-19T19:23:22;5.60;;;1.27;;
25980;SDS011;13772;52.996;9.124;2022-08-19T19:25:48;1.83;;;1.00;;
25980;SDS011;13772;52.996;9.124;2022-08-19T19:28:14;2.70;;;1.10;;
25980;SDS011;13772;52.996;9.124;2022-08-19T19:30:39;1.88;;;1.00;;
25980;SDS011;13772;52.996;9.124;2022-08-19T19:33:04;2.33;;;0.90;;
25980;SDS011;13772;52.996;9.124;2022-08-19T19:35:30;1.95;;;1.00;;
25980;SDS011;13772;52.996;9.124;2022-08-19T19:37:57;6.47;;;2.60;;
25980;SDS011;13772;52.996;9.124;2022-08-19T19:40:23;4.55;;;2.08;;
25980;SDS011;13772;52.996;9.124;2022-08-19T19:42:48;6.47;;;2.63;;
25980;SDS011;13772;52.996;9.124;2022-08-19T19:45:14;3.05;;;1.73;;
25980;SDS011;13772;52.996;9.124;2022-08-19T19:47:40;5.60;;;1.65;;
25980;SDS011;13772;52.996;9.124;2022-08-19T19:50:11;5.50;;;1.63;;
25980;SDS011;13772;52.996;9.124;2022-08-19T19:52:37;3.85;;;1.58;;
25980;SDS011;13772;52.996;9.124;2022-08-19T19:55:02;3.75;;;1.48;;
25980;SDS011;13772;52.996;9.124;2022-08-19T19:57:28;6.45;;;1.35;;
25980;SDS011;13772;52.996;9.124;2022-08-19T19:59:54;3.75;;;1.10;;
25980;SDS011;13772;52.996;9.124;2022-08-19T20:02:19;2.85;;;1.38;;
25980;SDS011;13772;52.996;9.124;2022-08-19T20:04:45;5.10;;;1.42;;
25980;SDS011;13772;52.996;9.124;2022-08-19T20:07:11;2.53;;;1.27;;
25980;SDS011;13772;52.996;9.124;2022-08-19T20:09:36;2.78;;;1.65;;
25980;SDS011;13772;52.996;9.124;2022-08-19T20:12:01;5.18;;;1.63;;
25980;SDS011;13772;52.996;9.124;2022-08-19T20:14:28;2.53;;;1.23;;
25980;SDS011;13772;52.996;9.124;2022-08-19T20:16:55;4.15;;;1.35;;
25980;SDS011;13772;52.996;9.124;2022-08-19T20:19:22;2.58;;;1.25;;
25980;SDS011;13772;52.996;9.124;2022-08-19T20:21:47;2.05;;;1.20;;
25980;SDS011;13772;52.996;9.124;2022-08-19T20:24:15;5.10;;;1.30;;
25980;SDS011;13772;52.996;9.124;2022-08-19T20:26:41;2.65;;;1.23;;
25980;SDS011;13772;52.996;9.124;2022-08-19T20:29:07;1.95;;;1.20;;
25980;SDS011;13772;52.996;9.124;2022-08-19T20:31:32;3.08;;;1.30;;
25980;SDS011;13772;52.996;9.124;2022-08-19T20:33:58;2.80;;;1.35;;
25980;SDS011;13772;52.996;9.124;2022-08-19T20:36:23;2.08;;;1.10;;
25980;SDS011;13772;52.996;9.124;2022-08-19T20:38:48;4.75;;;1.30;;
25980;SDS011;13772;52.996;9.124;2022-08-19T20:41:14;3.10;;;1.30;;
25980;SDS011;13772;52.996;9.124;2022-08-19T20:43:39;2.65;;;1.25;;
25980;SDS011;13772;52.996;9.124;2022-08-19T20:46:04;2.78;;;1.27;;
25980;SDS011;13772;52.996;9.124;2022-08-19T20:48:30;2.15;;;1.27;;
25980;SDS011;13772;52.996;9.124;2022-08-19T20:50:55;3.25;;;1.30;;